createdAt,value
2017-11-04T00:00:03.248Z,81.58
2017-11-04T00:02:32.492Z,81.63
2017-11-04T00:05:01.979Z,81.80
2017-11-04T00:07:31.187Z,81.93
2017-11-04T00:10:00.544Z,82.23
2017-11-04T00:12:30.540Z,82.04
2017-11-04T00:15:00.020Z,82.14
2017-11-04T00:17:29.251Z,82.22
2017-11-04T00:19:58.475Z,82.21
2017-11-04T00:22:27.695Z,82.13
2017-11-04T00:24:56.927Z,82.23
2017-11-04T00:27:26.131Z,82.35
2017-11-04T00:29:55.349Z,82.33
2017-11-04T00:32:24.564Z,82.18
2017-11-04T00:34:53.760Z,82.33
2017-11-04T00:37:23.726Z,82.49
2017-11-04T00:39:53.208Z,82.42
2017-11-04T00:42:22.434Z,82.27
2017-11-04T00:44:51.622Z,82.34
2017-11-04T00:47:20.833Z,82.06
2017-11-04T00:49:50.019Z,81.94
2017-11-04T00:52:19.256Z,81.76
2017-11-04T00:54:49.244Z,81.84
2017-11-04T00:57:19.964Z,81.48
2017-11-04T00:59:49.171Z,81.50
2017-11-04T01:02:18.375Z,81.19
2017-11-04T01:04:47.616Z,81.18
2017-11-04T01:07:16.852Z,81.44
2017-11-04T01:09:46.144Z,81.38
2017-11-04T01:12:15.405Z,81.45
2017-11-04T01:14:44.600Z,81.59
2017-11-04T01:17:14.093Z,81.62
2017-11-04T01:19:43.291Z,81.46
2017-11-04T01:22:13.284Z,81.59
2017-11-04T01:24:42.534Z,81.81
2017-11-04T01:27:11.755Z,82.08
2017-11-04T01:29:40.951Z,82.04
2017-11-04T01:32:10.184Z,82.25
2017-11-04T01:34:40.241Z,82.23
2017-11-04T01:37:09.452Z,82.28
2017-11-04T01:39:38.654Z,82.22
2017-11-04T01:42:07.906Z,82.21
2017-11-04T01:44:37.899Z,82.34
2017-11-04T01:47:07.408Z,82.38
2017-11-04T01:49:36.600Z,82.29
2017-11-04T01:52:05.816Z,82.30
2017-11-04T01:54:35.787Z,82.46
2017-11-04T01:57:05.010Z,82.79
2017-11-04T01:59:34.191Z,82.80
2017-11-04T02:02:03.406Z,82.72
2017-11-04T02:04:32.643Z,82.62
2017-11-04T02:07:01.825Z,82.40
2017-11-04T02:09:31.791Z,82.53
2017-11-04T02:12:01.000Z,82.73
2017-11-04T02:14:30.212Z,82.93
2017-11-04T02:16:59.428Z,82.84
2017-11-04T02:19:29.402Z,82.83
2017-11-04T02:21:58.819Z,82.48
2017-11-04T02:24:28.016Z,82.73
2017-11-04T02:26:57.467Z,82.66
2017-11-04T02:29:26.690Z,82.39
2017-11-04T02:31:55.927Z,82.75
2017-11-04T02:34:25.124Z,82.42
2017-11-04T02:36:55.143Z,82.52
2017-11-04T02:39:25.109Z,82.18
2017-11-04T02:41:54.438Z,82.40
2017-11-04T02:44:23.955Z,82.35
2017-11-04T02:46:53.183Z,82.37
2017-11-04T02:49:22.412Z,82.37
2017-11-04T02:51:51.611Z,82.64
2017-11-04T02:54:20.827Z,82.60
2017-11-04T02:56:50.035Z,82.67
2017-11-04T02:59:19.251Z,82.59
2017-11-04T03:01:49.272Z,82.57
2017-11-04T03:04:19.263Z,82.30
2017-11-04T03:06:48.464Z,82.42
2017-11-04T03:09:17.684Z,82.53
2017-11-04T03:11:47.667Z,82.50
2017-11-04T03:14:16.890Z,82.42
2017-11-04T03:16:46.901Z,82.43
2017-11-04T03:19:16.904Z,82.55
2017-11-04T03:21:46.095Z,82.38
2017-11-04T03:24:15.295Z,82.85
2017-11-04T03:26:44.515Z,82.64
2017-11-04T03:29:13.723Z,82.60
2017-11-04T03:31:43.699Z,82.45
2017-11-04T03:34:12.896Z,82.37
2017-11-04T03:36:43.223Z,82.44
2017-11-04T03:39:12.433Z,82.79
2017-11-04T03:41:41.710Z,82.60
2017-11-04T03:44:10.986Z,82.78
2017-11-04T03:46:40.161Z,82.68
2017-11-04T03:49:09.403Z,82.84
2017-11-04T03:51:38.607Z,82.94
2017-11-04T03:54:07.837Z,83.01
2017-11-04T03:56:37.276Z,83.15
2017-11-04T03:59:06.505Z,83.06
2017-11-04T04:01:35.716Z,83.11
2017-11-04T04:04:04.935Z,83.27
2017-11-04T04:06:34.888Z,83.42
2017-11-04T04:09:04.249Z,83.47
2017-11-04T04:11:33.430Z,83.62
2017-11-04T04:14:02.636Z,83.67
2017-11-04T04:16:32.189Z,84.08
2017-11-04T04:19:01.397Z,83.83
2017-11-04T04:21:30.630Z,84.04
2017-11-04T04:23:59.911Z,84.04
2017-11-04T04:26:29.111Z,83.95
2017-11-04T04:28:58.327Z,83.87
2017-11-04T04:31:27.559Z,83.63
2017-11-04T04:33:56.759Z,83.56
2017-11-04T04:36:25.983Z,83.46
2017-11-04T04:38:55.177Z,83.02
2017-11-04T04:41:24.367Z,82.94
2017-11-04T04:43:53.592Z,83.16
2017-11-04T04:46:22.796Z,82.98
2017-11-04T04:48:52.004Z,82.89
2017-11-04T04:51:22.700Z,82.99
2017-11-04T04:53:52.059Z,82.84
2017-11-04T04:56:22.030Z,83.07
2017-11-04T04:58:51.242Z,83.02
2017-11-04T05:01:20.479Z,82.90
2017-11-04T05:03:49.673Z,82.96
2017-11-04T05:06:18.888Z,82.98
2017-11-04T05:08:48.152Z,83.03
2017-11-04T05:11:17.384Z,82.92
2017-11-04T05:13:46.581Z,82.96
2017-11-04T05:16:15.807Z,83.10
2017-11-04T05:18:45.025Z,83.05
2017-11-04T05:21:14.259Z,82.88
2017-11-04T05:23:43.447Z,83.09
2017-11-04T05:26:13.419Z,83.14
2017-11-04T05:28:42.708Z,83.34
2017-11-04T05:31:12.863Z,83.26
2017-11-04T05:33:42.876Z,83.26
2017-11-04T05:36:12.128Z,83.61
2017-11-04T05:38:41.354Z,83.76
2017-11-04T05:41:10.571Z,83.68
2017-11-04T05:43:39.772Z,83.60
2017-11-04T05:46:09.743Z,83.61
2017-11-04T05:48:38.939Z,83.47
2017-11-04T05:51:08.163Z,83.25
2017-11-04T05:53:37.368Z,83.51
2017-11-04T05:56:07.252Z,83.48
2017-11-04T05:58:36.462Z,83.31
2017-11-04T06:01:05.652Z,83.32
2017-11-04T06:03:34.882Z,83.33
2017-11-04T06:06:04.092Z,83.54
2017-11-04T06:08:34.076Z,83.41
2017-11-04T06:11:03.371Z,83.47
2017-11-04T06:13:32.671Z,83.40
2017-11-04T06:16:01.892Z,83.33
2017-11-04T06:18:31.238Z,83.42
2017-11-04T06:21:01.184Z,83.32
2017-11-04T06:23:30.495Z,83.20
2017-11-04T06:25:59.709Z,83.23
2017-11-04T06:28:28.964Z,83.33
2017-11-04T06:30:58.160Z,83.32
2017-11-04T06:33:27.387Z,83.28
2017-11-04T06:35:56.583Z,83.26
2017-11-04T06:38:25.773Z,83.29
2017-11-04T06:40:54.973Z,83.44
2017-11-04T06:43:24.457Z,83.57
2017-11-04T06:45:53.712Z,83.55
2017-11-04T06:48:22.896Z,83.39
2017-11-04T06:50:52.935Z,83.35
2017-11-04T06:53:22.156Z,83.40
2017-11-04T06:55:51.371Z,83.38
2017-11-04T06:58:20.758Z,83.42
2017-11-04T07:00:50.232Z,83.26
2017-11-04T07:03:20.194Z,83.23
2017-11-04T07:05:49.473Z,83.08
2017-11-04T07:08:18.668Z,83.26
2017-11-04T07:10:47.922Z,83.29
2017-11-04T07:13:17.647Z,83.37
2017-11-04T07:15:46.867Z,83.41
2017-11-04T07:18:16.096Z,83.29
2017-11-04T07:20:45.305Z,83.10
2017-11-04T07:23:14.546Z,83.00
2017-11-04T07:25:43.728Z,82.98
2017-11-04T07:28:12.945Z,82.83
2017-11-04T07:30:42.171Z,82.42
2017-11-04T07:33:11.391Z,82.26
2017-11-04T07:35:41.434Z,81.84
2017-11-04T07:38:10.645Z,81.96
2017-11-04T07:40:39.988Z,82.11
2017-11-04T07:43:09.200Z,81.92
2017-11-04T07:45:38.486Z,81.92
2017-11-04T07:48:07.761Z,82.06
2017-11-04T07:50:37.292Z,82.19
2017-11-04T07:53:06.539Z,82.00
2017-11-04T07:55:36.540Z,81.99
2017-11-04T07:58:05.795Z,82.11
2017-11-04T08:00:35.000Z,81.91
2017-11-04T08:03:04.281Z,81.80
2017-11-04T08:05:33.627Z,82.02
2017-11-04T08:08:02.846Z,81.70
2017-11-04T08:10:32.227Z,81.95
2017-11-04T08:13:01.452Z,81.64
2017-11-04T08:15:31.463Z,81.59
2017-11-04T08:18:01.440Z,81.36
2017-11-04T08:20:30.672Z,81.06
2017-11-04T08:22:59.913Z,80.76
2017-11-04T08:25:29.168Z,80.65
2017-11-04T08:27:59.132Z,80.60
2017-11-04T08:30:28.419Z,80.48
2017-11-04T08:32:57.642Z,80.45
2017-11-04T08:35:26.932Z,80.31
2017-11-04T08:37:56.392Z,80.15
2017-11-04T08:40:26.391Z,80.50
2017-11-04T08:42:56.394Z,80.39
2017-11-04T08:45:25.601Z,80.31
2017-11-04T08:47:55.088Z,80.56
2017-11-04T08:50:24.356Z,80.37
2017-11-04T08:52:53.572Z,79.76
2017-11-04T08:55:22.816Z,78.84
2017-11-04T08:57:52.080Z,77.83
2017-11-04T09:00:21.324Z,77.72
2017-11-04T09:02:50.547Z,77.02
2017-11-04T09:05:20.569Z,76.93
2017-11-04T09:07:49.937Z,76.61
2017-11-04T09:10:19.932Z,76.87
2017-11-04T09:12:49.173Z,76.54
2017-11-04T09:15:18.618Z,76.90
2017-11-04T09:17:47.849Z,76.96
2017-11-04T09:20:17.070Z,77.18
2017-11-04T09:22:46.718Z,77.53
2017-11-04T09:25:15.949Z,77.13
2017-11-04T09:27:45.214Z,77.19
2017-11-04T09:30:14.747Z,77.04
2017-11-04T09:32:43.974Z,76.80
2017-11-04T09:35:13.200Z,76.86
2017-11-04T09:37:42.437Z,76.59
2017-11-04T09:40:12.511Z,76.64
2017-11-04T09:42:41.734Z,76.18
2017-11-04T09:45:11.029Z,76.35
2017-11-04T09:47:40.292Z,76.27
2017-11-04T09:50:10.527Z,76.28
2017-11-04T09:52:40.554Z,76.07
2017-11-04T09:55:09.796Z,76.02
2017-11-04T09:57:39.071Z,76.15
2017-11-04T10:00:09.107Z,75.69
2017-11-04T10:02:38.396Z,75.87
2017-11-04T10:05:08.436Z,75.95
2017-11-04T10:07:37.695Z,75.72
2017-11-04T10:10:06.930Z,75.52
2017-11-04T10:12:36.270Z,75.80
2017-11-04T10:15:05.472Z,75.55
2017-11-04T10:17:34.686Z,75.83
2017-11-04T10:20:04.257Z,75.70
2017-11-04T10:22:33.504Z,75.89
2017-11-04T10:25:03.503Z,76.20
2017-11-04T10:27:32.725Z,76.08
2017-11-04T10:30:01.997Z,76.26
2017-11-04T10:32:31.215Z,75.79
2017-11-04T10:35:01.244Z,75.60
2017-11-04T10:37:30.423Z,75.19
2017-11-04T10:39:59.623Z,75.07
2017-11-04T10:42:43.002Z,75.07
2017-11-04T10:45:12.207Z,75.13
2017-11-04T10:47:41.444Z,75.37
2017-11-04T10:50:11.445Z,74.82
2017-11-04T10:52:40.675Z,74.59
2017-11-04T10:55:10.668Z,74.61
2017-11-04T10:57:39.905Z,74.67
2017-11-04T11:00:09.889Z,74.50
2017-11-04T11:02:39.918Z,74.63
2017-11-04T11:05:09.133Z,74.89
2017-11-04T11:07:38.419Z,74.88
2017-11-04T11:10:08.507Z,74.63
2017-11-04T11:12:37.788Z,73.30
2017-11-04T11:15:07.008Z,73.86
2017-11-04T11:17:36.258Z,73.27
2017-11-04T11:20:05.468Z,72.41
2017-11-04T11:22:34.735Z,72.35
2017-11-04T11:25:03.979Z,72.74
2017-11-04T11:27:33.192Z,71.61
2017-11-04T11:30:02.466Z,72.07
2017-11-04T11:32:31.684Z,71.48
2017-11-04T11:35:00.962Z,71.24
2017-11-04T11:37:30.174Z,70.51
2017-11-04T11:39:59.376Z,70.52
2017-11-04T11:42:28.651Z,70.54
2017-11-04T11:44:57.863Z,70.65
2017-11-04T11:47:27.100Z,71.10
2017-11-04T11:49:57.081Z,70.81
2017-11-04T11:52:26.467Z,70.17
2017-11-04T11:54:55.691Z,69.53
2017-11-04T11:57:26.460Z,69.16
2017-11-04T11:59:56.415Z,68.83
2017-11-04T12:02:25.692Z,68.77
2017-11-04T12:04:54.908Z,68.12
2017-11-04T12:07:24.137Z,67.73
2017-11-04T12:09:53.337Z,67.34
2017-11-04T12:12:22.576Z,67.65
2017-11-04T12:14:51.803Z,67.51
2017-11-04T12:17:21.033Z,67.44
2017-11-04T12:19:50.249Z,67.21
2017-11-04T12:22:20.251Z,67.07
2017-11-04T12:24:50.266Z,67.12
2017-11-04T12:27:19.496Z,67.04
2017-11-04T12:29:48.724Z,67.64
2017-11-04T12:32:18.362Z,66.95
2017-11-04T12:34:47.556Z,66.63
2017-11-04T12:37:16.798Z,67.10
2017-11-04T12:39:46.007Z,66.30
2017-11-04T12:42:15.267Z,66.54
2017-11-04T12:44:44.472Z,66.55
2017-11-04T12:47:13.953Z,65.95
2017-11-04T12:49:43.164Z,65.64
2017-11-04T12:52:13.154Z,65.16
2017-11-04T12:54:42.374Z,65.65
2017-11-04T12:57:12.382Z,65.57
2017-11-04T12:59:41.642Z,65.91
2017-11-04T13:02:10.860Z,65.95
2017-11-04T13:04:40.079Z,65.87
2017-11-04T13:07:10.091Z,66.18
2017-11-04T13:09:39.346Z,66.73
2017-11-04T13:12:08.580Z,66.57
2017-11-04T13:14:37.980Z,66.88
2017-11-04T13:17:07.212Z,66.71
2017-11-04T13:19:37.206Z,67.20
2017-11-04T13:22:06.413Z,66.75
2017-11-04T13:24:36.563Z,66.83
2017-11-04T13:27:05.818Z,66.74
2017-11-04T13:29:35.044Z,67.12
2017-11-04T13:32:04.270Z,67.23
2017-11-04T13:34:33.547Z,67.38
2017-11-04T13:37:02.803Z,67.46
2017-11-04T13:39:32.029Z,67.95
2017-11-04T13:42:02.068Z,68.17
2017-11-04T13:44:31.301Z,68.26
2017-11-04T13:47:00.540Z,68.19
2017-11-04T13:49:30.524Z,68.33
2017-11-04T13:51:59.758Z,68.52
2017-11-04T13:54:28.988Z,68.97
2017-11-04T13:56:58.214Z,69.11
2017-11-04T13:59:27.456Z,68.67
2017-11-04T14:01:56.727Z,68.59
2017-11-04T14:04:26.848Z,68.57
2017-11-04T14:06:56.132Z,68.52
2017-11-04T14:09:25.372Z,68.79
2017-11-04T14:11:54.613Z,68.97
2017-11-04T14:14:23.864Z,69.15
2017-11-04T14:16:53.843Z,68.85
2017-11-04T14:19:23.128Z,68.91
2017-11-04T14:21:52.552Z,69.13
2017-11-04T14:24:21.780Z,69.30
2017-11-04T14:26:51.786Z,69.15
2017-11-04T14:29:21.769Z,69.32
2017-11-04T14:31:51.080Z,69.52
2017-11-04T14:34:20.304Z,69.79
2017-11-04T14:36:50.293Z,69.93
2017-11-04T14:39:19.500Z,69.93
2017-11-04T14:41:51.783Z,70.11
2017-11-04T14:44:21.775Z,70.42
2017-11-04T14:46:51.059Z,70.44
2017-11-04T14:49:20.282Z,70.33
2017-11-04T14:51:49.503Z,70.79
2017-11-04T14:54:18.966Z,70.79
2017-11-04T14:56:48.185Z,71.19
2017-11-04T14:59:17.419Z,71.29
2017-11-04T15:01:46.650Z,71.07
2017-11-04T15:04:15.898Z,71.53
2017-11-04T15:06:45.882Z,71.30
2017-11-04T15:09:15.176Z,71.19
2017-11-04T15:11:44.471Z,71.66
2017-11-04T15:14:13.700Z,71.44
2017-11-04T15:16:43.644Z,71.47
2017-11-04T15:19:12.896Z,71.76
2017-11-04T15:21:42.144Z,71.87
2017-11-04T15:24:11.364Z,71.56
2017-11-04T15:26:41.431Z,71.98
2017-11-04T15:29:11.430Z,72.21
2017-11-04T15:31:40.659Z,72.37
2017-11-04T15:34:09.878Z,72.50
2017-11-04T15:36:39.150Z,72.44
2017-11-04T15:39:08.901Z,72.48
2017-11-04T15:41:38.131Z,72.39
2017-11-04T15:44:08.340Z,72.58
2017-11-04T15:46:37.605Z,72.53
2017-11-04T15:49:06.841Z,72.84
2017-11-04T15:51:36.067Z,73.21
2017-11-04T15:54:06.089Z,73.18
2017-11-04T15:56:36.061Z,73.22
2017-11-04T15:59:05.364Z,73.39
2017-11-04T16:01:34.764Z,73.42
2017-11-04T16:04:03.999Z,73.45
2017-11-04T16:06:33.980Z,73.64
2017-11-04T16:09:04.024Z,73.68
2017-11-04T16:11:34.052Z,73.99
2017-11-04T16:14:04.071Z,74.37
2017-11-04T16:16:34.040Z,74.41
2017-11-04T16:19:03.264Z,74.35
2017-11-04T16:21:33.283Z,74.49
2017-11-04T16:24:03.253Z,74.85
2017-11-04T16:26:32.489Z,74.65
2017-11-04T16:29:01.705Z,74.57
2017-11-04T16:31:31.711Z,74.44
2017-11-04T16:34:00.963Z,74.49
2017-11-04T16:36:30.160Z,74.59
2017-11-04T16:38:59.443Z,74.65
2017-11-04T16:41:28.713Z,74.54
2017-11-04T16:43:58.701Z,74.87
2017-11-04T16:46:27.927Z,74.46
2017-11-04T16:48:57.920Z,74.78
2017-11-04T16:51:27.189Z,74.42
2017-11-04T16:53:56.408Z,74.66
2017-11-04T16:56:25.724Z,74.67
2017-11-04T16:58:55.317Z,74.48
2017-11-04T17:01:24.565Z,74.25
2017-11-04T17:03:53.780Z,74.14
2017-11-04T17:06:23.119Z,74.40
2017-11-04T17:08:53.831Z,74.39
2017-11-04T17:11:23.081Z,74.06
2017-11-04T17:13:52.509Z,74.19
2017-11-04T17:16:21.749Z,74.24
2017-11-04T17:18:50.984Z,74.75
2017-11-04T17:21:20.964Z,75.68
2017-11-04T17:23:50.199Z,76.74
2017-11-04T17:26:19.656Z,76.92
2017-11-04T17:28:50.431Z,76.86
2017-11-04T17:31:20.417Z,77.11
2017-11-04T17:33:49.632Z,76.92
2017-11-04T17:36:18.888Z,77.14
2017-11-04T17:38:48.131Z,77.03
2017-11-04T17:41:18.108Z,77.05
2017-11-04T17:43:47.408Z,77.16
2017-11-04T17:46:16.619Z,77.09
2017-11-04T17:48:45.873Z,77.46
2017-11-04T17:51:15.143Z,77.75
2017-11-04T17:53:45.174Z,77.87
2017-11-04T17:56:14.472Z,78.55
2017-11-04T17:58:43.706Z,78.93
2017-11-04T18:01:12.970Z,79.05
2017-11-04T18:03:43.028Z,79.20
2017-11-04T18:06:12.288Z,79.09
2017-11-04T18:08:41.599Z,78.89
2017-11-04T18:11:11.639Z,78.82
2017-11-04T18:13:40.881Z,78.89
2017-11-04T18:16:10.889Z,78.70
2017-11-04T18:18:40.901Z,78.64
2017-11-04T18:21:10.895Z,78.88
2017-11-04T18:23:41.643Z,80.93
2017-11-04T18:26:10.885Z,82.29
2017-11-04T18:28:40.107Z,83.30
2017-11-04T18:31:09.336Z,84.08
2017-11-04T18:33:38.563Z,84.46
2017-11-04T18:36:07.785Z,85.32
2017-11-04T18:38:37.018Z,85.42
2017-11-04T18:41:06.256Z,85.60
2017-11-04T18:43:36.288Z,85.67
2017-11-04T18:46:05.480Z,85.66
2017-11-04T18:48:34.737Z,85.50
2017-11-04T18:51:03.976Z,85.33
2017-11-04T18:53:33.239Z,85.60
2017-11-04T18:56:02.481Z,85.34
2017-11-04T18:58:31.761Z,85.27
2017-11-04T19:01:01.759Z,85.05
2017-11-04T19:03:31.061Z,84.87
2017-11-04T19:06:01.063Z,84.60
2017-11-04T19:08:30.320Z,84.54
2017-11-04T19:10:59.565Z,84.38
2017-11-04T19:13:29.607Z,84.24
2017-11-04T19:15:59.623Z,84.39
2017-11-04T19:18:28.885Z,84.59
2017-11-04T19:20:58.131Z,84.27
2017-11-04T19:23:27.392Z,84.02
2017-11-04T19:25:56.695Z,83.89
2017-11-04T19:28:26.697Z,83.86
2017-11-04T19:30:55.964Z,83.71
2017-11-04T19:33:25.216Z,83.36
2017-11-04T19:35:55.234Z,83.35
2017-11-04T19:38:25.225Z,82.93
2017-11-04T19:40:54.450Z,82.87
2017-11-04T19:43:24.456Z,82.73
2017-11-04T19:45:53.685Z,82.60
2017-11-04T19:48:22.977Z,82.58
2017-11-04T19:50:52.987Z,82.16
2017-11-04T19:53:22.973Z,82.10
2017-11-04T19:55:52.224Z,82.10
2017-11-04T19:58:21.447Z,82.10
2017-11-04T20:00:50.740Z,82.21
2017-11-04T20:03:20.011Z,82.38
2017-11-04T20:05:49.256Z,82.44
2017-11-04T20:08:18.592Z,82.46
2017-11-04T20:10:48.588Z,82.39
2017-11-04T20:13:17.815Z,82.20
2017-11-04T20:15:47.049Z,82.22
2017-11-04T20:18:16.267Z,82.36
2017-11-04T20:20:45.515Z,82.38
2017-11-04T20:23:14.750Z,82.33
2017-11-04T20:25:44.004Z,82.42
2017-11-04T20:28:13.989Z,82.42
2017-11-04T20:30:43.221Z,82.25
2017-11-04T20:33:12.450Z,82.49
2017-11-04T20:35:41.656Z,82.25
2017-11-04T20:38:10.916Z,82.12
2017-11-04T20:40:40.152Z,81.92
2017-11-04T20:43:09.385Z,81.67
2017-11-04T20:45:38.655Z,81.58
2017-11-04T20:48:07.893Z,81.48
2017-11-04T20:50:37.940Z,81.30
2017-11-04T20:53:07.936Z,81.48
2017-11-04T20:55:37.163Z,81.22
2017-11-04T20:58:06.409Z,81.32
2017-11-04T21:00:35.632Z,81.27
2017-11-04T21:03:04.855Z,81.44
2017-11-04T21:05:34.103Z,81.62
2017-11-04T21:08:04.114Z,81.38
2017-11-04T21:10:33.386Z,81.41
2017-11-04T21:13:02.617Z,81.84
2017-11-04T21:15:31.840Z,82.43
2017-11-04T21:18:01.073Z,83.17
2017-11-04T21:20:30.343Z,83.42
2017-11-04T21:22:59.572Z,84.05
2017-11-04T21:25:28.780Z,84.51
2017-11-04T21:27:58.044Z,85.16
2017-11-04T21:30:27.298Z,85.15
2017-11-04T21:32:57.303Z,85.25
2017-11-04T21:35:26.553Z,85.74
2017-11-04T21:37:55.808Z,85.66
2017-11-04T21:40:25.050Z,85.54
2017-11-04T21:42:54.284Z,85.64
2017-11-04T21:45:23.522Z,85.63
2017-11-04T21:47:53.526Z,85.40
2017-11-04T21:50:23.560Z,85.38
2017-11-04T21:52:53.568Z,85.17
2017-11-04T21:55:23.570Z,85.02
2017-11-04T21:57:52.790Z,84.92
2017-11-04T22:00:22.915Z,84.82
2017-11-04T22:02:52.901Z,84.67
2017-11-04T22:05:22.173Z,84.57
2017-11-04T22:07:51.415Z,84.27
2017-11-04T22:10:20.655Z,84.32
2017-11-04T22:12:49.893Z,83.98
2017-11-04T22:15:19.099Z,83.85
2017-11-04T22:17:48.371Z,83.91
2017-11-04T22:20:17.592Z,84.03
2017-11-04T22:22:47.601Z,84.02
2017-11-04T22:25:16.847Z,83.87
2017-11-04T22:27:46.093Z,83.88
2017-11-04T22:30:15.341Z,83.72
2017-11-04T22:32:44.573Z,83.72
2017-11-04T22:35:13.810Z,83.49
2017-11-04T22:37:43.080Z,83.26
2017-11-04T22:40:12.343Z,83.28
2017-11-04T22:42:41.615Z,83.17
2017-11-04T22:45:11.602Z,83.10
2017-11-04T22:47:40.819Z,83.19
2017-11-04T22:50:10.815Z,82.95
2017-11-04T22:52:40.126Z,82.74
2017-11-04T22:55:09.368Z,82.73
2017-11-04T22:57:38.585Z,82.63
2017-11-04T23:00:07.881Z,82.68
2017-11-04T23:02:37.079Z,82.54
2017-11-04T23:05:06.297Z,82.47
2017-11-04T23:07:36.283Z,82.45
2017-11-04T23:10:05.524Z,82.27
2017-11-04T23:12:34.773Z,82.19
2017-11-04T23:15:04.003Z,82.30
2017-11-04T23:17:33.212Z,82.34
2017-11-04T23:20:02.460Z,82.07
2017-11-04T23:22:31.692Z,82.20
2017-11-04T23:25:00.908Z,82.05
2017-11-04T23:27:30.183Z,82.11
2017-11-04T23:29:59.391Z,82.06
2017-11-04T23:32:28.667Z,82.01
2017-11-04T23:34:57.880Z,82.05
2017-11-04T23:37:27.139Z,82.04
2017-11-04T23:39:56.356Z,81.71
2017-11-04T23:42:25.575Z,81.84
2017-11-04T23:44:54.828Z,81.73
2017-11-04T23:47:24.080Z,81.89
2017-11-04T23:49:53.308Z,81.82
2017-11-04T23:52:23.297Z,81.93
2017-11-04T23:54:52.530Z,82.07
2017-11-04T23:57:22.531Z,82.03
2017-11-04T23:59:51.769Z,82.13
